sensor_id;sensor_type;location;lat;lon;timestamp;temperature;humidity
32095;DHT22;18608;53.688;10.748;2023-11-18T00:06:41;3.70;99.90
32095;DHT22;18608;53.688;10.748;2023-11-18T00:33:34;4.00;99.90
32095;DHT22;18608;53.688;10.748;2023-11-18T01:10:11;4.00;99.90
32095;DHT22;18608;53.688;10.748;2023-11-18T01:15:03;4.30;99.90
32095;DHT22;18608;53.688;10.748;2023-11-18T01:39:36;3.80;99.90
32095;DHT22;18608;53.688;10.748;2023-11-18T01:44:30;3.80;99.90
32095;DHT22;18608;53.688;10.748;2023-11-18T01:46:57;4.10;99.90
32095;DHT22;18608;53.688;10.748;2023-11-18T01:49:24;4.10;99.90
32095;DHT22;18608;53.688;10.748;2023-11-18T01:56:48;4.30;99.90
32095;DHT22;18608;53.688;10.748;2023-11-18T02:01:48;4.30;99.90
32095;DHT22;18608;53.688;10.748;2023-11-18T02:06:42;3.80;99.90
32095;DHT22;18608;53.688;10.748;2023-11-18T02:11:39;3.70;99.90
32095;DHT22;18608;53.688;10.748;2023-11-18T02:14:08;3.70;99.90
32095;DHT22;18608;53.688;10.748;2023-11-18T02:16:38;3.60;99.90
32095;DHT22;18608;53.688;10.748;2023-11-18T02:19:08;3.60;99.90
32095;DHT22;18608;53.688;10.748;2023-11-18T02:21:35;3.60;99.90
32095;DHT22;18608;53.688;10.748;2023-11-18T02:31:27;3.90;99.90
32095;DHT22;18608;53.688;10.748;2023-11-18T02:34:17;4.10;99.90
32095;DHT22;18608;53.688;10.748;2023-11-18T02:39:43;4.20;99.90
32095;DHT22;18608;53.688;10.748;2023-11-18T02:42:12;4.30;99.90
32095;DHT22;18608;53.688;10.748;2023-11-18T02:44:38;4.30;99.90
32095;DHT22;18608;53.688;10.748;2023-11-18T02:47:04;4.20;99.90
32095;DHT22;18608;53.688;10.748;2023-11-18T02:49:36;4.10;99.90
32095;DHT22;18608;53.688;10.748;2023-11-18T03:50:40;4.00;99.90
32095;DHT22;18608;53.688;10.748;2023-11-18T04:03:01;4.10;99.90
32095;DHT22;18608;53.688;10.748;2023-11-18T04:22:42;4.10;99.90
32095;DHT22;18608;53.688;10.748;2023-11-18T04:25:09;3.90;99.90
32095;DHT22;18608;53.688;10.748;2023-11-18T04:30:02;3.70;99.90
32095;DHT22;18608;53.688;10.748;2023-11-18T04:54:24;3.40;99.90
32095;DHT22;18608;53.688;10.748;2023-11-18T05:23:39;3.50;99.90
32095;DHT22;18608;53.688;10.748;2023-11-18T05:28:31;3.60;99.90
32095;DHT22;18608;53.688;10.748;2023-11-18T05:30:57;4.00;99.90
32095;DHT22;18608;53.688;10.748;2023-11-18T05:40:52;3.70;99.90
32095;DHT22;18608;53.688;10.748;2023-11-18T05:43:30;3.70;99.90
32095;DHT22;18608;53.688;10.748;2023-11-18T05:46:05;3.90;99.90
32095;DHT22;18608;53.688;10.748;2023-11-18T05:48:43;4.00;99.90
32095;DHT22;18608;53.688;10.748;2023-11-18T05:53:39;4.20;99.90
32095;DHT22;18608;53.688;10.748;2023-11-18T06:18:05;4.50;99.90
32095;DHT22;18608;53.688;10.748;2023-11-18T06:32:45;4.60;99.90
32095;DHT22;18608;53.688;10.748;2023-11-18T06:40:08;4.60;99.90
32095;DHT22;18608;53.688;10.748;2023-11-18T06:42:42;4.70;99.90
32095;DHT22;18608;53.688;10.748;2023-11-18T06:47:35;4.70;99.90
32095;DHT22;18608;53.688;10.748;2023-11-18T06:52:30;4.50;99.90
32095;DHT22;18608;53.688;10.748;2023-11-18T07:12:02;4.80;99.90
32095;DHT22;18608;53.688;10.748;2023-11-18T07:26:40;4.50;99.90
32095;DHT22;18608;53.688;10.748;2023-11-18T07:29:06;4.80;99.90
32095;DHT22;18608;53.688;10.748;2023-11-18T07:34:04;4.90;99.90
32095;DHT22;18608;53.688;10.748;2023-11-18T07:43:53;4.90;99.90
32095;DHT22;18608;53.688;10.748;2023-11-18T07:48:52;5.00;99.90
32095;DHT22;18608;53.688;10.748;2023-11-18T07:53:48;4.90;99.90
32095;DHT22;18608;53.688;10.748;2023-11-18T07:58:42;4.90;99.90
32095;DHT22;18608;53.688;10.748;2023-11-18T08:01:11;4.90;99.90
32095;DHT22;18608;53.688;10.748;2023-11-18T08:06:04;5.20;99.90
32095;DHT22;18608;53.688;10.748;2023-11-18T08:13:25;5.30;99.90
32095;DHT22;18608;53.688;10.748;2023-11-18T08:40:14;5.00;99.90
32095;DHT22;18608;53.688;10.748;2023-11-18T08:42:52;5.00;99.90
32095;DHT22;18608;53.688;10.748;2023-11-18T08:45:22;5.00;99.90
32095;DHT22;18608;53.688;10.748;2023-11-18T08:50:19;5.00;99.90
32095;DHT22;18608;53.688;10.748;2023-11-18T08:52:45;5.10;99.90
32095;DHT22;18608;53.688;10.748;2023-11-18T08:55:16;5.20;99.90
32095;DHT22;18608;53.688;10.748;2023-11-18T08:57:50;5.10;99.90
32095;DHT22;18608;53.688;10.748;2023-11-18T09:00:28;5.20;99.90
32095;DHT22;18608;53.688;10.748;2023-11-18T09:05:57;5.30;99.90
32095;DHT22;18608;53.688;10.748;2023-11-18T09:08:30;5.30;99.90
32095;DHT22;18608;53.688;10.748;2023-11-18T09:11:11;5.60;99.90
32095;DHT22;18608;53.688;10.748;2023-11-18T09:16:07;5.50;99.90
32095;DHT22;18608;53.688;10.748;2023-11-18T09:21:02;5.40;99.90
32095;DHT22;18608;53.688;10.748;2023-11-18T09:33:23;5.60;99.90
32095;DHT22;18608;53.688;10.748;2023-11-18T09:36:01;5.60;99.90
32095;DHT22;18608;53.688;10.748;2023-11-18T09:38:31;5.50;99.90
32095;DHT22;18608;53.688;10.748;2023-11-18T09:40:57;5.50;99.90
32095;DHT22;18608;53.688;10.748;2023-11-18T09:43:31;5.50;99.90
32095;DHT22;18608;53.688;10.748;2023-11-18T09:46:14;5.90;99.90
32095;DHT22;18608;53.688;10.748;2023-11-18T09:48:43;6.00;99.90
32095;DHT22;18608;53.688;10.748;2023-11-18T09:51:19;6.00;99.90
32095;DHT22;18608;53.688;10.748;2023-11-18T09:53:53;6.00;99.90
32095;DHT22;18608;53.688;10.748;2023-11-18T09:59:16;6.30;99.90
32095;DHT22;18608;53.688;10.748;2023-11-18T10:01:51;6.40;99.90
32095;DHT22;18608;53.688;10.748;2023-11-18T10:04:20;6.60;99.90
32095;DHT22;18608;53.688;10.748;2023-11-18T10:06:49;6.60;99.90
32095;DHT22;18608;53.688;10.748;2023-11-18T10:24:15;7.10;99.90
32095;DHT22;18608;53.688;10.748;2023-11-18T10:26:45;7.00;99.90
32095;DHT22;18608;53.688;10.748;2023-11-18T10:29:11;7.00;99.90
32095;DHT22;18608;53.688;10.748;2023-11-18T10:31:39;7.00;99.90
32095;DHT22;18608;53.688;10.748;2023-11-18T10:34:12;7.00;99.90
32095;DHT22;18608;53.688;10.748;2023-11-18T10:39:11;7.00;99.90
32095;DHT22;18608;53.688;10.748;2023-11-18T10:41:43;7.20;99.90
32095;DHT22;18608;53.688;10.748;2023-11-18T10:44:09;7.40;99.90
32095;DHT22;18608;53.688;10.748;2023-11-18T10:54:04;7.60;99.90
32095;DHT22;18608;53.688;10.748;2023-11-18T10:56:46;7.50;99.90
32095;DHT22;18608;53.688;10.748;2023-11-18T11:04:13;7.30;99.90
32095;DHT22;18608;53.688;10.748;2023-11-18T11:06:45;7.10;99.90
32095;DHT22;18608;53.688;10.748;2023-11-18T11:09:18;6.80;99.90
32095;DHT22;18608;53.688;10.748;2023-11-18T11:12:06;6.80;99.90
32095;DHT22;18608;53.688;10.748;2023-11-18T11:14:46;6.80;99.90
32095;DHT22;18608;53.688;10.748;2023-11-18T11:17:17;6.70;99.90
32095;DHT22;18608;53.688;10.748;2023-11-18T11:22:37;7.20;99.90
32095;DHT22;18608;53.688;10.748;2023-11-18T11:27:43;7.30;99.90
32095;DHT22;18608;53.688;10.748;2023-11-18T11:32:51;7.60;99.90
32095;DHT22;18608;53.688;10.748;2023-11-18T11:35:23;7.20;99.90
32095;DHT22;18608;53.688;10.748;2023-11-18T11:40:21;7.30;99.90
32095;DHT22;18608;53.688;10.748;2023-11-18T11:42:50;7.30;99.90
32095;DHT22;18608;53.688;10.748;2023-11-18T11:45:23;7.40;99.90
32095;DHT22;18608;53.688;10.748;2023-11-18T11:47:55;7.10;99.90
32095;DHT22;18608;53.688;10.748;2023-11-18T11:51:03;7.10;99.90
32095;DHT22;18608;53.688;10.748;2023-11-18T11:53:42;7.30;99.90
32095;DHT22;18608;53.688;10.748;2023-11-18T11:58:41;7.40;99.90
32095;DHT22;18608;53.688;10.748;2023-11-18T12:01:21;7.60;99.90
32095;DHT22;18608;53.688;10.748;2023-11-18T12:06:19;7.70;99.90
32095;DHT22;18608;53.688;10.748;2023-11-18T12:08:52;7.70;99.90
32095;DHT22;18608;53.688;10.748;2023-11-18T12:11:22;7.60;99.90
32095;DHT22;18608;53.688;10.748;2023-11-18T12:14:08;7.30;99.90
32095;DHT22;18608;53.688;10.748;2023-11-18T12:17:05;7.30;99.90
32095;DHT22;18608;53.688;10.748;2023-11-18T12:19:39;7.30;99.90
32095;DHT22;18608;53.688;10.748;2023-11-18T12:22:17;7.30;99.90
32095;DHT22;18608;53.688;10.748;2023-11-18T12:27:42;6.80;99.90
32095;DHT22;18608;53.688;10.748;2023-11-18T12:32:57;6.40;99.90
32095;DHT22;18608;53.688;10.748;2023-11-18T12:43:15;6.30;99.90
32095;DHT22;18608;53.688;10.748;2023-11-18T12:45:52;6.40;99.90
32095;DHT22;18608;53.688;10.748;2023-11-18T12:48:27;6.40;99.90
32095;DHT22;18608;53.688;10.748;2023-11-18T12:53:24;6.60;99.90
32095;DHT22;18608;53.688;10.748;2023-11-18T13:18:03;6.30;99.90
32095;DHT22;18608;53.688;10.748;2023-11-18T13:20:35;6.20;99.90
32095;DHT22;18608;53.688;10.748;2023-11-18T13:23:04;6.20;99.90
32095;DHT22;18608;53.688;10.748;2023-11-18T13:28:10;6.00;99.90
32095;DHT22;18608;53.688;10.748;2023-11-18T13:43:01;5.80;99.90
32095;DHT22;18608;53.688;10.748;2023-11-18T13:45:28;5.50;99.90
32095;DHT22;18608;53.688;10.748;2023-11-18T13:57:43;5.80;99.90
32095;DHT22;18608;53.688;10.748;2023-11-18T14:00:10;5.70;99.90
32095;DHT22;18608;53.688;10.748;2023-11-18T14:02:41;5.40;99.90
32095;DHT22;18608;53.688;10.748;2023-11-18T14:05:18;6.00;99.90
32095;DHT22;18608;53.688;10.748;2023-11-18T14:07:46;5.60;99.90
32095;DHT22;18608;53.688;10.748;2023-11-18T14:12:39;5.40;99.90
32095;DHT22;18608;53.688;10.748;2023-11-18T14:20:02;5.50;99.90
32095;DHT22;18608;53.688;10.748;2023-11-18T15:06:26;5.10;99.90
32095;DHT22;18608;53.688;10.748;2023-11-18T15:11:24;5.00;99.90
32095;DHT22;18608;53.688;10.748;2023-11-18T15:13:50;5.00;99.90
32095;DHT22;18608;53.688;10.748;2023-11-18T15:28:34;5.10;99.90
32095;DHT22;18608;53.688;10.748;2023-11-18T15:40:50;4.90;99.90
32095;DHT22;18608;53.688;10.748;2023-11-18T15:45:42;4.90;99.90
32095;DHT22;18608;53.688;10.748;2023-11-18T15:50:36;4.80;99.90
32095;DHT22;18608;53.688;10.748;2023-11-18T15:53:05;4.90;99.90
32095;DHT22;18608;53.688;10.748;2023-11-18T15:55:31;4.80;99.90
32095;DHT22;18608;53.688;10.748;2023-11-18T16:00:27;4.80;99.90
32095;DHT22;18608;53.688;10.748;2023-11-18T16:02:54;4.80;99.90
32095;DHT22;18608;53.688;10.748;2023-11-18T16:05:22;4.70;99.90
32095;DHT22;18608;53.688;10.748;2023-11-18T16:07:49;4.70;99.90
32095;DHT22;18608;53.688;10.748;2023-11-18T16:10:20;4.80;99.90
32095;DHT22;18608;53.688;10.748;2023-11-18T16:15:19;4.70;99.90
32095;DHT22;18608;53.688;10.748;2023-11-18T16:17:48;4.70;99.90
32095;DHT22;18608;53.688;10.748;2023-11-18T16:20:16;4.60;99.90
32095;DHT22;18608;53.688;10.748;2023-11-18T16:22:42;4.60;99.90
32095;DHT22;18608;53.688;10.748;2023-11-18T16:30:05;4.70;99.90
32095;DHT22;18608;53.688;10.748;2023-11-18T17:16:26;4.60;99.90
32095;DHT22;18608;53.688;10.748;2023-11-18T17:38:24;4.60;99.90
32095;DHT22;18608;53.688;10.748;2023-11-18T17:43:16;4.60;99.90
32095;DHT22;18608;53.688;10.748;2023-11-18T17:55:28;4.60;99.90
32095;DHT22;18608;53.688;10.748;2023-11-18T18:00:21;4.60;99.90
32095;DHT22;18608;53.688;10.748;2023-11-18T18:02:49;4.70;99.90
32095;DHT22;18608;53.688;10.748;2023-11-18T18:05:15;4.70;99.90
32095;DHT22;18608;53.688;10.748;2023-11-18T18:10:08;4.70;99.90
32095;DHT22;18608;53.688;10.748;2023-11-18T18:12:37;4.70;99.90
32095;DHT22;18608;53.688;10.748;2023-11-18T18:15:04;4.70;99.90
32095;DHT22;18608;53.688;10.748;2023-11-18T18:34:39;4.40;99.90
32095;DHT22;18608;53.688;10.748;2023-11-18T18:46:52;4.30;99.90
32095;DHT22;18608;53.688;10.748;2023-11-18T18:49:19;4.30;99.90
32095;DHT22;18608;53.688;10.748;2023-11-18T19:30:55;4.20;99.90
32095;DHT22;18608;53.688;10.748;2023-11-18T19:57:43;4.10;99.90
32095;DHT22;18608;53.688;10.748;2023-11-18T20:05:04;4.90;99.90
32095;DHT22;18608;53.688;10.748;2023-11-18T20:19:43;4.10;99.90
32095;DHT22;18608;53.688;10.748;2023-11-18T20:39:14;4.30;99.90
32095;DHT22;18608;53.688;10.748;2023-11-18T20:41:46;4.10;99.90
32095;DHT22;18608;53.688;10.748;2023-11-18T20:44:13;4.30;99.90
32095;DHT22;18608;53.688;10.748;2023-11-18T20:51:31;4.20;99.90
32095;DHT22;18608;53.688;10.748;2023-11-18T21:03:43;4.30;99.90
32095;DHT22;18608;53.688;10.748;2023-11-18T21:23:21;4.50;99.90
32095;DHT22;18608;53.688;10.748;2023-11-18T21:45:20;4.40;99.90
32095;DHT22;18608;53.688;10.748;2023-11-18T21:47:52;4.40;99.90
32095;DHT22;18608;53.688;10.748;2023-11-18T21:55:12;4.20;99.90
32095;DHT22;18608;53.688;10.748;2023-11-18T22:00:05;4.30;99.90
32095;DHT22;18608;53.688;10.748;2023-11-18T22:05:07;4.30;99.90
32095;DHT22;18608;53.688;10.748;2023-11-18T22:07:34;4.40;99.90
32095;DHT22;18608;53.688;10.748;2023-11-18T22:12:25;5.00;99.90
32095;DHT22;18608;53.688;10.748;2023-11-18T22:22:15;4.20;99.90
32095;DHT22;18608;53.688;10.748;2023-11-18T22:29:35;4.40;99.90
32095;DHT22;18608;53.688;10.748;2023-11-18T22:46:41;4.40;99.90
32095;DHT22;18608;53.688;10.748;2023-11-18T22:54:05;4.40;99.90
32095;DHT22;18608;53.688;10.748;2023-11-18T23:03:49;4.40;99.90
32095;DHT22;18608;53.688;10.748;2023-11-18T23:06:16;4.40;99.90
32095;DHT22;18608;53.688;10.748;2023-11-18T23:08:49;4.00;99.90
32095;DHT22;18608;53.688;10.748;2023-11-18T23:16:10;4.40;99.90
32095;DHT22;18608;53.688;10.748;2023-11-18T23:18:41;4.40;99.90
32095;DHT22;18608;53.688;10.748;2023-11-18T23:21:11;4.50;99.90
32095;DHT22;18608;53.688;10.748;2023-11-18T23:26:03;4.50;99.90
32095;DHT22;18608;53.688;10.748;2023-11-18T23:28:35;4.40;99.90
32095;DHT22;18608;53.688;10.748;2023-11-18T23:31:01;4.40;99.90
32095;DHT22;18608;53.688;10.748;2023-11-18T23:33:28;4.40;99.90
32095;DHT22;18608;53.688;10.748;2023-11-18T23:50:34;4.30;99.90
